createdAt,value
2018-08-16T00:00:21.202Z,26.70
2018-08-16T00:02:50.061Z,26.71
2018-08-16T00:05:18.957Z,26.72
2018-08-16T00:07:47.936Z,26.72
2018-08-16T00:10:18.119Z,26.73
2018-08-16T00:12:48.145Z,26.74
2018-08-16T00:15:18.109Z,26.75
2018-08-16T00:17:47.020Z,26.76
2018-08-16T00:20:16.105Z,26.77
2018-08-16T00:22:45.141Z,26.77
2018-08-16T00:25:14.773Z,26.78
2018-08-16T00:27:43.706Z,26.78
2018-08-16T00:30:14.815Z,26.80
2018-08-16T00:32:44.293Z,26.81
2018-08-16T00:35:13.265Z,26.81
2018-08-16T00:37:42.136Z,26.82
2018-08-16T00:40:13.641Z,26.82
2018-08-16T00:42:42.471Z,26.83
2018-08-16T00:45:12.128Z,26.83
2018-08-16T00:47:40.932Z,26.84
2018-08-16T00:50:11.214Z,26.84
2018-08-16T00:52:42.905Z,26.84
2018-08-16T00:55:12.865Z,26.86
2018-08-16T00:57:41.618Z,26.84
2018-08-16T01:00:12.096Z,26.87
2018-08-16T01:02:40.895Z,26.86
2018-08-16T01:05:09.746Z,26.87
2018-08-16T01:07:38.653Z,26.88
2018-08-16T01:10:08.839Z,26.89
2018-08-16T01:12:37.827Z,26.90
2018-08-16T01:15:08.514Z,26.90
2018-08-16T01:17:37.341Z,26.90
2018-08-16T01:20:06.252Z,26.89
2018-08-16T01:22:35.063Z,26.90
2018-08-16T01:25:04.118Z,26.91
2018-08-16T01:27:33.591Z,26.91
2018-08-16T01:30:02.600Z,26.90
2018-08-16T01:32:31.971Z,26.91
2018-08-16T01:35:01.120Z,26.91
2018-08-16T01:37:29.971Z,26.91
2018-08-16T01:39:59.049Z,26.89
2018-08-16T01:42:28.085Z,26.88
2018-08-16T01:44:57.137Z,26.88
2018-08-16T01:47:27.885Z,26.87
2018-08-16T01:49:56.674Z,26.86
2018-08-16T01:52:25.561Z,26.85
2018-08-16T01:54:54.556Z,26.82
2018-08-16T01:57:23.643Z,26.82
2018-08-16T01:59:52.596Z,26.82
2018-08-16T02:02:21.835Z,26.80
2018-08-16T02:04:50.691Z,26.80
2018-08-16T02:07:19.947Z,26.78
2018-08-16T02:09:49.079Z,26.77
2018-08-16T02:12:18.139Z,26.76
2018-08-16T02:14:47.004Z,26.75
2018-08-16T02:17:16.021Z,26.73
2018-08-16T02:19:44.936Z,26.72
2018-08-16T02:22:14.047Z,26.70
2018-08-16T02:24:43.205Z,26.71
2018-08-16T02:27:12.120Z,26.69
2018-08-16T02:29:41.257Z,26.68
2018-08-16T02:32:10.301Z,26.66
2018-08-16T02:34:39.270Z,26.65
2018-08-16T02:37:08.432Z,26.65
2018-08-16T02:39:37.438Z,26.64
2018-08-16T02:42:06.475Z,26.64
2018-08-16T02:44:35.732Z,26.63
2018-08-16T02:47:04.871Z,26.63
2018-08-16T02:49:34.361Z,26.63
2018-08-16T02:52:03.475Z,26.62
2018-08-16T02:54:32.441Z,26.62
2018-08-16T02:57:01.409Z,26.61
2018-08-16T02:59:30.317Z,26.61
2018-08-16T03:02:00.397Z,26.60
2018-08-16T03:04:29.607Z,26.60
2018-08-16T03:06:58.566Z,26.59
2018-08-16T03:09:27.560Z,26.58
2018-08-16T03:11:56.704Z,26.58
2018-08-16T03:14:25.846Z,26.57
2018-08-16T03:16:54.862Z,26.57
2018-08-16T03:19:23.965Z,26.56
2018-08-16T03:21:52.976Z,26.56
2018-08-16T03:24:21.808Z,26.53
2018-08-16T03:26:50.826Z,26.53
2018-08-16T03:29:19.987Z,26.53
2018-08-16T03:31:49.013Z,26.52
2018-08-16T03:34:17.808Z,26.53
2018-08-16T03:36:46.944Z,26.52
2018-08-16T03:39:15.748Z,26.51
2018-08-16T03:41:44.775Z,26.51
2018-08-16T03:44:13.843Z,26.51
2018-08-16T03:46:42.766Z,26.50
2018-08-16T03:49:11.761Z,26.48
2018-08-16T03:51:40.902Z,26.49
2018-08-16T03:54:09.859Z,26.47
2018-08-16T03:56:38.792Z,26.47
2018-08-16T03:59:07.900Z,26.47
2018-08-16T04:01:37.049Z,26.46
2018-08-16T04:04:06.150Z,26.45
2018-08-16T04:06:35.186Z,26.44
2018-08-16T04:09:05.010Z,26.44
2018-08-16T04:11:33.927Z,26.44
2018-08-16T04:14:02.810Z,26.43
2018-08-16T04:16:31.981Z,26.43
2018-08-16T04:19:01.094Z,26.43
2018-08-16T04:21:29.852Z,26.44
2018-08-16T04:23:58.712Z,26.43
2018-08-16T04:26:27.928Z,26.43
2018-08-16T04:28:56.942Z,26.43
2018-08-16T04:31:26.025Z,26.43
2018-08-16T04:33:55.000Z,26.43
2018-08-16T04:36:24.145Z,26.44
2018-08-16T04:38:53.336Z,26.44
2018-08-16T04:41:22.224Z,26.44
2018-08-16T04:43:51.030Z,26.45
2018-08-16T04:46:20.168Z,26.44
2018-08-16T04:48:49.161Z,26.45
2018-08-16T04:51:18.190Z,26.45
2018-08-16T04:53:47.261Z,26.46
2018-08-16T04:56:16.199Z,26.47
2018-08-16T04:58:45.244Z,26.48
2018-08-16T05:01:14.596Z,26.49
2018-08-16T05:03:43.715Z,26.52
2018-08-16T05:06:12.865Z,26.53
2018-08-16T05:08:42.252Z,26.54
2018-08-16T05:11:11.411Z,26.57
2018-08-16T05:13:40.386Z,26.58
2018-08-16T05:16:09.535Z,26.59
2018-08-16T05:18:38.389Z,26.61
2018-08-16T05:21:07.574Z,26.63
2018-08-16T05:23:36.652Z,26.64
2018-08-16T05:26:05.717Z,26.67
2018-08-16T05:28:34.872Z,26.69
2018-08-16T05:31:03.929Z,26.71
2018-08-16T05:33:33.200Z,26.73
2018-08-16T05:36:02.568Z,26.75
2018-08-16T05:38:31.652Z,26.75
2018-08-16T05:41:00.661Z,26.76
2018-08-16T05:43:29.694Z,26.78
2018-08-16T05:45:58.744Z,26.79
2018-08-16T05:48:27.770Z,26.80
2018-08-16T05:50:56.666Z,26.81
2018-08-16T05:53:25.803Z,26.82
2018-08-16T05:55:54.964Z,26.84
2018-08-16T05:58:23.748Z,26.85
2018-08-16T06:00:52.669Z,26.85
2018-08-16T06:03:22.054Z,26.86
2018-08-16T06:05:50.923Z,26.86
2018-08-16T06:08:19.811Z,26.88
2018-08-16T06:10:48.717Z,26.87
2018-08-16T06:13:17.537Z,26.88
2018-08-16T06:15:46.724Z,26.89
2018-08-16T06:18:15.881Z,26.90
2018-08-16T06:20:44.868Z,26.91
2018-08-16T06:23:13.902Z,26.92
2018-08-16T06:25:43.096Z,26.92
2018-08-16T06:28:12.260Z,26.93
2018-08-16T06:30:41.060Z,26.95
2018-08-16T06:33:10.316Z,26.96
2018-08-16T06:35:39.350Z,26.98
2018-08-16T06:38:08.561Z,26.99
2018-08-16T06:40:37.709Z,27.00
2018-08-16T06:43:06.888Z,27.02
2018-08-16T06:45:36.096Z,27.03
2018-08-16T06:48:05.252Z,27.04
2018-08-16T06:50:34.129Z,27.05
2018-08-16T06:53:03.193Z,27.06
2018-08-16T06:55:32.266Z,27.07
2018-08-16T06:58:01.245Z,27.07
2018-08-16T07:00:30.989Z,27.08
2018-08-16T07:02:59.877Z,27.09
2018-08-16T07:05:28.989Z,27.09
2018-08-16T07:07:57.938Z,27.10
2018-08-16T07:10:27.037Z,27.11
2018-08-16T07:12:56.060Z,27.12
2018-08-16T07:15:25.085Z,27.12
2018-08-16T07:17:54.129Z,27.12
2018-08-16T07:20:23.086Z,27.13
2018-08-16T07:22:52.120Z,27.13
2018-08-16T07:25:21.044Z,27.14
2018-08-16T07:27:50.146Z,27.14
2018-08-16T07:30:19.304Z,27.14
2018-08-16T07:32:48.210Z,27.13
2018-08-16T07:35:17.138Z,27.14
2018-08-16T07:37:46.285Z,27.14
2018-08-16T07:40:15.364Z,27.14
2018-08-16T07:42:44.638Z,27.15
2018-08-16T07:45:13.904Z,27.15
2018-08-16T07:47:42.975Z,27.16
2018-08-16T07:50:12.034Z,27.12
2018-08-16T07:52:41.545Z,27.15
2018-08-16T07:55:11.346Z,27.16
2018-08-16T07:57:40.664Z,27.15
2018-08-16T08:00:13.270Z,27.15
2018-08-16T08:02:42.395Z,27.15
2018-08-16T08:05:11.624Z,27.17
2018-08-16T08:07:40.725Z,27.16
2018-08-16T08:10:10.228Z,27.14
2018-08-16T08:12:39.288Z,27.15
2018-08-16T08:15:10.852Z,27.16
2018-08-16T08:17:40.687Z,27.17
2018-08-16T08:20:11.668Z,27.16
2018-08-16T08:22:40.993Z,27.16
2018-08-16T08:25:10.066Z,27.17
2018-08-16T08:27:39.653Z,27.17
2018-08-16T08:30:14.168Z,27.17
2018-08-16T08:32:43.319Z,27.18
2018-08-16T08:35:12.390Z,27.18
2018-08-16T08:37:52.233Z,27.17
2018-08-16T08:40:21.445Z,27.17
2018-08-16T08:42:50.456Z,27.17
2018-08-16T08:45:19.692Z,27.17
2018-08-16T08:47:53.653Z,27.17
2018-08-16T08:50:22.632Z,27.18
2018-08-16T08:52:51.515Z,27.17
2018-08-16T08:55:31.401Z,27.17
2018-08-16T08:58:11.443Z,27.17
2018-08-16T09:00:40.605Z,27.16
2018-08-16T09:03:09.602Z,27.16
2018-08-16T09:05:38.644Z,27.16
2018-08-16T09:08:07.803Z,27.15
2018-08-16T09:11:02.015Z,27.15
2018-08-16T09:13:42.135Z,27.14
2018-08-16T09:16:15.785Z,27.13
2018-08-16T09:18:44.867Z,27.12
2018-08-16T09:21:14.561Z,27.12
2018-08-16T09:23:43.536Z,27.11
2018-08-16T09:26:17.667Z,27.10
2018-08-16T09:28:46.893Z,27.10
2018-08-16T09:31:27.347Z,27.10
2018-08-16T09:34:10.167Z,27.09
2018-08-16T09:36:39.153Z,27.08
2018-08-16T09:39:09.301Z,27.08
2018-08-16T09:41:38.601Z,27.06
2018-08-16T09:44:07.708Z,27.06
2018-08-16T09:47:00.615Z,27.07
2018-08-16T09:49:30.821Z,27.05
2018-08-16T09:52:00.029Z,27.05
2018-08-16T09:54:29.345Z,27.04
2018-08-16T09:56:59.835Z,27.04
2018-08-16T09:59:29.269Z,27.04
2018-08-16T10:01:58.403Z,27.04
2018-08-16T10:04:27.690Z,27.03
2018-08-16T10:06:57.100Z,27.02
2018-08-16T10:09:30.158Z,27.04
2018-08-16T10:11:59.850Z,27.02
2018-08-16T10:14:29.001Z,27.03
2018-08-16T10:16:58.002Z,27.03
2018-08-16T10:19:28.248Z,27.04
2018-08-16T10:21:57.722Z,27.04
2018-08-16T10:24:26.515Z,27.03
2018-08-16T10:26:55.397Z,27.05
2018-08-16T10:29:24.497Z,27.04
2018-08-16T10:31:53.509Z,27.04
2018-08-16T10:34:22.700Z,27.04
2018-08-16T10:36:51.898Z,27.05
2018-08-16T10:39:21.662Z,27.04
2018-08-16T10:41:51.000Z,27.04
2018-08-16T10:44:20.072Z,27.05
2018-08-16T10:46:49.052Z,27.05
2018-08-16T10:49:18.060Z,27.05
2018-08-16T10:51:47.196Z,27.05
2018-08-16T10:54:16.291Z,27.05
2018-08-16T10:56:45.500Z,27.05
2018-08-16T10:59:14.548Z,27.05
2018-08-16T11:01:43.638Z,27.05
2018-08-16T11:04:12.672Z,27.05
2018-08-16T11:06:41.571Z,27.05
2018-08-16T11:09:10.785Z,27.05
2018-08-16T11:11:39.921Z,27.04
2018-08-16T11:14:09.533Z,27.04
2018-08-16T11:16:38.646Z,27.04
2018-08-16T11:19:07.760Z,27.05
2018-08-16T11:21:36.739Z,27.05
2018-08-16T11:24:06.115Z,27.04
2018-08-16T11:26:35.141Z,27.04
2018-08-16T11:29:04.357Z,27.04
2018-08-16T11:31:33.406Z,27.03
2018-08-16T11:34:02.505Z,27.03
2018-08-16T11:36:31.441Z,27.03
2018-08-16T11:39:00.610Z,27.02
2018-08-16T11:41:29.838Z,27.02
2018-08-16T11:43:58.748Z,27.01
2018-08-16T11:46:27.851Z,27.00
2018-08-16T11:48:56.828Z,26.99
2018-08-16T11:51:26.027Z,27.00
2018-08-16T11:53:54.889Z,26.98
2018-08-16T11:56:23.841Z,26.99
2018-08-16T11:58:52.880Z,26.98
2018-08-16T12:01:22.011Z,26.97
2018-08-16T12:03:51.199Z,26.98
2018-08-16T12:06:20.097Z,26.92
2018-08-16T12:08:49.042Z,26.95
2018-08-16T12:11:18.088Z,26.95
2018-08-16T12:13:47.131Z,26.95
2018-08-16T12:16:16.068Z,26.94
2018-08-16T12:18:45.525Z,26.93
2018-08-16T12:21:14.666Z,26.94
2018-08-16T12:23:44.025Z,26.94
2018-08-16T12:26:13.196Z,26.93
2018-08-16T12:28:42.225Z,26.93
2018-08-16T12:31:12.943Z,26.92
2018-08-16T12:33:43.583Z,26.92
2018-08-16T12:36:14.076Z,26.92
2018-08-16T12:38:44.715Z,26.92
2018-08-16T12:41:15.457Z,26.91
2018-08-16T12:43:45.774Z,26.92
2018-08-16T12:46:16.008Z,26.91
2018-08-16T12:48:46.587Z,26.92
2018-08-16T12:51:17.346Z,26.92
2018-08-16T12:53:46.756Z,26.92
2018-08-16T12:56:16.577Z,26.92
2018-08-16T12:58:45.866Z,26.94
2018-08-16T13:01:15.285Z,26.95
2018-08-16T13:03:44.801Z,26.96
2018-08-16T13:06:14.471Z,26.98
2018-08-16T13:08:44.077Z,26.98
2018-08-16T13:11:13.083Z,27.00
2018-08-16T13:13:43.096Z,27.00
2018-08-16T13:16:12.011Z,26.99
2018-08-16T13:19:30.480Z,27.01
2018-08-16T13:21:59.651Z,27.01
2018-08-16T13:24:29.255Z,27.01
2018-08-16T13:26:58.134Z,27.02
2018-08-16T13:29:27.768Z,27.03
2018-08-16T13:31:57.353Z,27.05
2018-08-16T13:34:26.862Z,27.06
2018-08-16T13:36:56.267Z,27.08
2018-08-16T13:39:25.565Z,27.09
2018-08-16T13:41:55.046Z,27.10
2018-08-16T13:44:24.472Z,27.12
2018-08-16T13:46:54.147Z,27.13
2018-08-16T13:49:24.469Z,27.14
2018-08-16T13:51:53.763Z,27.13
2018-08-16T13:54:23.051Z,27.14
2018-08-16T13:56:52.269Z,27.14
2018-08-16T13:59:21.739Z,27.15
2018-08-16T14:01:51.349Z,27.15
2018-08-16T14:04:20.445Z,27.15
2018-08-16T14:06:49.763Z,27.16
2018-08-16T14:09:18.982Z,27.16
2018-08-16T14:11:49.399Z,27.13
2018-08-16T14:14:18.896Z,27.16
2018-08-16T14:16:48.412Z,27.16
2018-08-16T14:19:17.756Z,27.16
2018-08-16T14:21:47.221Z,27.15
2018-08-16T14:24:16.397Z,27.15
2018-08-16T14:26:45.805Z,27.15
2018-08-16T14:29:15.012Z,27.15
2018-08-16T14:31:43.851Z,27.14
2018-08-16T14:34:12.839Z,27.14
2018-08-16T14:36:42.484Z,27.14
2018-08-16T14:39:12.644Z,27.14
2018-08-16T14:41:41.838Z,27.14
2018-08-16T14:44:10.717Z,27.14
2018-08-16T14:46:39.546Z,27.12
2018-08-16T14:49:08.385Z,27.13
2018-08-16T14:54:25.414Z,27.12
2018-08-16T14:56:55.123Z,27.10
2018-08-16T14:59:24.082Z,27.10
2018-08-16T15:01:52.870Z,27.09
2018-08-16T15:04:21.764Z,27.10
2018-08-16T15:06:50.635Z,27.10
2018-08-16T15:09:19.457Z,27.09
2018-08-16T15:11:48.290Z,27.10
2018-08-16T15:14:17.143Z,27.09
2018-08-16T15:16:46.153Z,27.10
2018-08-16T15:19:14.978Z,27.11
2018-08-16T15:21:44.173Z,27.10
2018-08-16T15:24:16.078Z,27.11
2018-08-16T15:26:45.140Z,27.10
2018-08-16T15:29:14.020Z,27.11
2018-08-16T15:31:42.846Z,27.10
2018-08-16T15:34:11.735Z,27.11
2018-08-16T15:36:40.524Z,27.10
2018-08-16T15:39:10.097Z,27.11
2018-08-16T15:41:39.231Z,27.11
2018-08-16T15:44:09.253Z,27.11
2018-08-16T15:46:38.106Z,27.12
2018-08-16T15:49:07.036Z,27.10
2018-08-16T15:51:35.868Z,27.11
2018-08-16T15:54:04.725Z,27.11
2018-08-16T15:56:33.753Z,27.11
2018-08-16T15:59:02.817Z,27.10
2018-08-16T16:01:31.664Z,27.11
2018-08-16T16:04:00.504Z,27.11
2018-08-16T16:06:29.502Z,27.09
2018-08-16T16:08:58.211Z,27.10
2018-08-16T16:11:27.014Z,27.10
2018-08-16T16:13:56.022Z,27.10
2018-08-16T16:16:24.836Z,27.10
2018-08-16T16:18:53.785Z,27.10
2018-08-16T16:21:22.727Z,27.10
2018-08-16T16:23:51.618Z,27.09
2018-08-16T16:26:20.636Z,27.10
2018-08-16T16:28:49.692Z,27.10
2018-08-16T16:31:18.528Z,27.10
2018-08-16T16:33:47.366Z,27.09
2018-08-16T16:36:16.271Z,27.08
2018-08-16T16:38:45.152Z,27.08
2018-08-16T16:41:14.062Z,27.09
2018-08-16T16:43:42.894Z,27.07
2018-08-16T16:46:11.826Z,27.07
2018-08-16T16:48:40.712Z,27.07
2018-08-16T16:51:11.289Z,27.08
2018-08-16T16:53:40.202Z,27.07
2018-08-16T16:56:09.916Z,27.07
2018-08-16T16:58:39.361Z,27.06
2018-08-16T17:04:28.973Z,27.07
2018-08-16T17:06:58.044Z,27.08
2018-08-16T17:09:27.084Z,27.06
2018-08-16T17:12:11.444Z,27.07
2018-08-16T17:14:40.827Z,27.07
2018-08-16T17:17:11.383Z,27.07
2018-08-16T17:19:40.254Z,27.08
2018-08-16T17:22:09.456Z,27.09
2018-08-16T17:24:38.754Z,26.92
2018-08-16T17:27:07.599Z,27.09
2018-08-16T17:29:36.649Z,27.10
2018-08-16T17:32:06.023Z,27.11
2018-08-16T17:34:34.975Z,27.12
2018-08-16T17:37:04.279Z,27.12
2018-08-16T17:39:33.108Z,27.13
2018-08-16T17:42:01.954Z,27.13
2018-08-16T17:44:30.755Z,27.13
2018-08-16T17:46:59.570Z,27.14
2018-08-16T17:49:29.944Z,27.14
2018-08-16T20:58:25.375Z,27.00
2018-08-16T21:00:54.237Z,27.00
2018-08-16T21:03:22.998Z,27.00
2018-08-16T21:05:52.123Z,27.02
2018-08-16T21:08:21.853Z,27.01
2018-08-16T21:10:51.000Z,27.03
2018-08-16T21:13:19.740Z,27.03
2018-08-16T21:15:48.801Z,27.05
2018-08-16T21:18:17.648Z,27.06
2018-08-16T21:20:46.540Z,27.07
2018-08-16T21:23:15.642Z,27.08
2018-08-16T21:25:44.567Z,27.09
2018-08-16T21:28:13.785Z,27.10
2018-08-16T21:30:42.668Z,27.10
2018-08-16T21:33:11.633Z,27.11
2018-08-16T21:35:40.479Z,27.11
2018-08-16T21:38:09.412Z,27.11
2018-08-16T21:40:38.277Z,27.12
2018-08-16T21:43:07.168Z,27.12
2018-08-16T21:45:35.986Z,27.12
2018-08-16T21:48:04.861Z,27.13
2018-08-16T21:50:33.753Z,27.13
2018-08-16T21:53:02.660Z,27.13
2018-08-16T21:55:31.535Z,27.13
2018-08-16T21:58:00.337Z,27.14
2018-08-16T22:00:52.994Z,27.14
2018-08-16T22:03:23.039Z,27.14
2018-08-16T22:05:55.836Z,27.13
2018-08-16T22:08:25.972Z,27.14
2018-08-16T22:10:54.767Z,27.14
2018-08-16T22:13:23.688Z,27.15
2018-08-16T22:15:52.442Z,27.15
2018-08-16T22:18:21.275Z,27.16
2018-08-16T22:20:50.643Z,27.15
2018-08-16T22:23:19.536Z,27.17
2018-08-16T22:25:48.504Z,27.17
2018-08-16T22:28:17.504Z,27.17
2018-08-16T22:30:46.531Z,27.17
2018-08-16T22:33:15.759Z,27.17
2018-08-16T22:35:44.618Z,27.18
2018-08-16T22:38:13.576Z,27.17
2018-08-16T22:40:42.689Z,27.19
2018-08-16T22:43:11.723Z,27.19
2018-08-16T22:45:40.736Z,27.20
2018-08-16T22:48:09.638Z,27.21
2018-08-16T22:50:38.588Z,27.22
2018-08-16T22:53:07.549Z,27.22
2018-08-16T22:55:36.710Z,27.23
2018-08-16T22:58:06.303Z,27.23
2018-08-16T23:00:35.144Z,27.24
2018-08-16T23:03:05.206Z,27.25
2018-08-16T23:05:34.048Z,27.26
2018-08-16T23:08:02.916Z,27.27
2018-08-16T23:10:31.738Z,27.27
2018-08-16T23:13:01.278Z,27.22
2018-08-16T23:15:30.106Z,27.27
2018-08-16T23:17:58.974Z,27.28
2018-08-16T23:20:27.911Z,27.29
2018-08-16T23:22:56.673Z,27.30
2018-08-16T23:25:25.454Z,27.28
2018-08-16T23:27:54.357Z,27.31
2018-08-16T23:30:23.162Z,27.30
2018-08-16T23:32:51.979Z,27.31
2018-08-16T23:35:20.876Z,27.32
2018-08-16T23:37:49.650Z,27.33
2018-08-16T23:40:18.429Z,27.33
2018-08-16T23:42:47.261Z,27.35
2018-08-16T23:45:16.068Z,27.35
2018-08-16T23:48:25.592Z,27.35
2018-08-16T23:54:15.009Z,27.36
2018-08-16T23:56:43.850Z,27.36
2018-08-16T23:59:13.141Z,27.36
